Main page
METAR-TAF:

METAR-TAF

Airports :

Charlevoix Municipal Airport

Charlevoix, Michigan, United States

latitude: 45-18-17N, longitude: 085-16-29W, elevation: 204 m

Current weather observation

The report was made 12 minutes ago, at 13:15 UTC
Calm wind
Temperature 17°C
Humidity 94%
Pressure 1029 hPa
Visibility: 16.1 km
Overcast at a height of 5000 ft

METAR: KCVX 201315Z AUTO 00000KT 10SM OVC050 17/16 A3038 RMK AO2 T01660155

Time: 09:27 (13:27 UTC)


TAF: missing

Weather observations and forecasts of more than 4000 airports (METAR and TAF reports).

The available stations are represented by yellow and red dots on the map.

Hover mouse over dot to see the name of the station.

Then click to see weather observations and forecasts.

To change the map : click on the green buttons with a black cross to zoom in, on the green button with a dash to zoom out, or on the green arrows for adjacent maps.


METAR-TAF: